sensor_id;sensor_type;location;lat;lon;timestamp;temperature;humidity
58513;DHT22;44302;47.914;10.642;2022-07-23T00:01:29;23.20;93.30
58513;DHT22;44302;47.914;10.642;2022-07-23T00:03:55;23.10;92.90
58513;DHT22;44302;47.914;10.642;2022-07-23T00:06:22;23.10;93.20
58513;DHT22;44302;47.914;10.642;2022-07-23T00:08:47;23.10;93.30
58513;DHT22;44302;47.914;10.642;2022-07-23T00:11:13;23.00;93.40
58513;DHT22;44302;47.914;10.642;2022-07-23T00:13:39;23.00;93.60
58513;DHT22;44302;47.914;10.642;2022-07-23T00:16:05;23.00;92.90
58513;DHT22;44302;47.914;10.642;2022-07-23T00:18:31;23.00;93.40
58513;DHT22;44302;47.914;10.642;2022-07-23T00:20:57;23.00;93.30
58513;DHT22;44302;47.914;10.642;2022-07-23T00:23:22;23.00;93.20
58513;DHT22;44302;47.914;10.642;2022-07-23T00:25:50;22.60;90.60
58513;DHT22;44302;47.914;10.642;2022-07-23T00:28:17;22.10;93.50
58513;DHT22;44302;47.914;10.642;2022-07-23T00:30:44;21.50;95.50
58513;DHT22;44302;47.914;10.642;2022-07-23T00:33:10;21.00;94.70
58513;DHT22;44302;47.914;10.642;2022-07-23T00:35:37;20.70;95.70
58513;DHT22;44302;47.914;10.642;2022-07-23T00:38:06;20.20;97.30
58513;DHT22;44302;47.914;10.642;2022-07-23T00:40:33;19.60;99.90
58513;DHT22;44302;47.914;10.642;2022-07-23T00:42:59;19.00;99.90
58513;DHT22;44302;47.914;10.642;2022-07-23T00:45:25;18.50;99.90
58513;DHT22;44302;47.914;10.642;2022-07-23T00:50:17;18.20;99.90
58513;DHT22;44302;47.914;10.642;2022-07-23T00:52:43;18.10;99.90
58513;DHT22;44302;47.914;10.642;2022-07-23T00:55:10;18.10;99.90
58513;DHT22;44302;47.914;10.642;2022-07-23T01:00:05;18.10;99.90
58513;DHT22;44302;47.914;10.642;2022-07-23T01:02:32;18.20;99.90
58513;DHT22;44302;47.914;10.642;2022-07-23T01:09:51;18.10;99.90
58513;DHT22;44302;47.914;10.642;2022-07-23T01:12:17;18.30;99.90
58513;DHT22;44302;47.914;10.642;2022-07-23T01:14:43;18.30;99.90
58513;DHT22;44302;47.914;10.642;2022-07-23T01:22:03;18.50;99.90
58513;DHT22;44302;47.914;10.642;2022-07-23T01:24:29;18.30;99.90
58513;DHT22;44302;47.914;10.642;2022-07-23T01:29:21;18.50;99.90
58513;DHT22;44302;47.914;10.642;2022-07-23T01:36:39;18.20;99.90
58513;DHT22;44302;47.914;10.642;2022-07-23T01:39:06;18.20;99.90
58513;DHT22;44302;47.914;10.642;2022-07-23T01:41:33;17.90;99.90
58513;DHT22;44302;47.914;10.642;2022-07-23T01:43:58;18.30;99.90
58513;DHT22;44302;47.914;10.642;2022-07-23T02:13:14;17.80;99.90
58513;DHT22;44302;47.914;10.642;2022-07-23T02:27:51;17.70;99.90
58513;DHT22;44302;47.914;10.642;2022-07-23T02:54:37;16.90;99.90
58513;DHT22;44302;47.914;10.642;2022-07-23T03:04:22;17.20;99.90
58513;DHT22;44302;47.914;10.642;2022-07-23T03:09:14;17.20;99.90
58513;DHT22;44302;47.914;10.642;2022-07-23T03:11:40;17.40;99.90
58513;DHT22;44302;47.914;10.642;2022-07-23T03:16:33;17.20;99.90
58513;DHT22;44302;47.914;10.642;2022-07-23T03:18:58;17.40;99.90
58513;DHT22;44302;47.914;10.642;2022-07-23T03:31:09;17.50;99.90
58513;DHT22;44302;47.914;10.642;2022-07-23T03:36:01;17.30;99.90
58513;DHT22;44302;47.914;10.642;2022-07-23T03:38:26;17.40;99.90
58513;DHT22;44302;47.914;10.642;2022-07-23T03:40:52;17.40;99.90
58513;DHT22;44302;47.914;10.642;2022-07-23T03:45:44;17.40;99.90
58513;DHT22;44302;47.914;10.642;2022-07-23T03:48:09;17.40;99.90
58513;DHT22;44302;47.914;10.642;2022-07-23T03:50:35;17.50;99.90
58513;DHT22;44302;47.914;10.642;2022-07-23T03:55:29;17.60;99.90
58513;DHT22;44302;47.914;10.642;2022-07-23T04:02:46;17.20;99.90
58513;DHT22;44302;47.914;10.642;2022-07-23T04:10:05;17.50;99.90
58513;DHT22;44302;47.914;10.642;2022-07-23T04:14:57;17.40;99.90
58513;DHT22;44302;47.914;10.642;2022-07-23T04:24:41;17.40;99.90
58513;DHT22;44302;47.914;10.642;2022-07-23T04:29:33;17.40;99.90
58513;DHT22;44302;47.914;10.642;2022-07-23T04:39:18;17.40;99.90
58513;DHT22;44302;47.914;10.642;2022-07-23T04:53:55;17.40;99.90
58513;DHT22;44302;47.914;10.642;2022-07-23T04:56:21;17.60;99.90
58513;DHT22;44302;47.914;10.642;2022-07-23T05:01:13;17.20;99.90
58513;DHT22;44302;47.914;10.642;2022-07-23T05:03:39;17.60;99.90
58513;DHT22;44302;47.914;10.642;2022-07-23T05:15:49;17.70;99.90
58513;DHT22;44302;47.914;10.642;2022-07-23T05:20:40;17.50;99.90
58513;DHT22;44302;47.914;10.642;2022-07-23T05:23:07;17.80;99.90
58513;DHT22;44302;47.914;10.642;2022-07-23T05:32:51;17.40;99.90
58513;DHT22;44302;47.914;10.642;2022-07-23T05:35:17;17.50;99.90
58513;DHT22;44302;47.914;10.642;2022-07-23T05:40:09;17.50;99.90
58513;DHT22;44302;47.914;10.642;2022-07-23T05:42:37;17.50;99.90
58513;DHT22;44302;47.914;10.642;2022-07-23T05:45:03;17.50;99.90
58513;DHT22;44302;47.914;10.642;2022-07-23T05:47:42;17.60;99.90
58513;DHT22;44302;47.914;10.642;2022-07-23T05:50:08;17.80;99.90
58513;DHT22;44302;47.914;10.642;2022-07-23T05:52:34;17.60;99.90
58513;DHT22;44302;47.914;10.642;2022-07-23T06:33:57;18.90;99.90
58513;DHT22;44302;47.914;10.642;2022-07-23T06:58:19;18.70;99.90
58513;DHT22;44302;47.914;10.642;2022-07-23T07:10:31;19.10;99.90
58513;DHT22;44302;47.914;10.642;2022-07-23T07:42:10;18.70;99.90
58513;DHT22;44302;47.914;10.642;2022-07-23T07:44:36;19.00;99.90
58513;DHT22;44302;47.914;10.642;2022-07-23T07:54:19;18.90;99.90
58513;DHT22;44302;47.914;10.642;2022-07-23T07:59:11;19.30;99.90
58513;DHT22;44302;47.914;10.642;2022-07-23T08:01:37;19.00;99.90
58513;DHT22;44302;47.914;10.642;2022-07-23T08:23:31;19.60;99.90
58513;DHT22;44302;47.914;10.642;2022-07-23T08:33:18;19.90;99.90
58513;DHT22;44302;47.914;10.642;2022-07-23T08:35:47;20.20;99.90
58513;DHT22;44302;47.914;10.642;2022-07-23T08:38:17;20.10;99.90
58513;DHT22;44302;47.914;10.642;2022-07-23T08:40:54;20.40;99.90
58513;DHT22;44302;47.914;10.642;2022-07-23T08:43:25;20.60;99.90
58513;DHT22;44302;47.914;10.642;2022-07-23T08:45:54;20.80;99.90
58513;DHT22;44302;47.914;10.642;2022-07-23T08:48:25;21.00;99.90
58513;DHT22;44302;47.914;10.642;2022-07-23T08:50:56;21.10;99.90
58513;DHT22;44302;47.914;10.642;2022-07-23T08:53:24;21.20;99.90
58513;DHT22;44302;47.914;10.642;2022-07-23T08:55:52;21.30;99.90
58513;DHT22;44302;47.914;10.642;2022-07-23T08:58:19;21.20;99.90
58513;DHT22;44302;47.914;10.642;2022-07-23T09:00:48;21.20;99.90
58513;DHT22;44302;47.914;10.642;2022-07-23T09:03:18;21.10;99.90
58513;DHT22;44302;47.914;10.642;2022-07-23T09:05:45;21.20;99.90
58513;DHT22;44302;47.914;10.642;2022-07-23T09:08:15;21.20;99.90
58513;DHT22;44302;47.914;10.642;2022-07-23T09:13:34;21.20;99.90
58513;DHT22;44302;47.914;10.642;2022-07-23T09:16:06;21.30;99.90
58513;DHT22;44302;47.914;10.642;2022-07-23T09:18:39;21.30;99.90
58513;DHT22;44302;47.914;10.642;2022-07-23T09:21:06;21.40;99.90
58513;DHT22;44302;47.914;10.642;2022-07-23T09:23:52;21.70;99.90
58513;DHT22;44302;47.914;10.642;2022-07-23T09:26:23;21.80;99.90
58513;DHT22;44302;47.914;10.642;2022-07-23T09:29:38;22.00;99.90
58513;DHT22;44302;47.914;10.642;2022-07-23T09:31:51;22.00;99.90
58513;DHT22;44302;47.914;10.642;2022-07-23T09:34:21;22.00;99.90
58513;DHT22;44302;47.914;10.642;2022-07-23T09:36:48;22.10;99.90
58513;DHT22;44302;47.914;10.642;2022-07-23T09:39:15;22.10;99.90
58513;DHT22;44302;47.914;10.642;2022-07-23T09:41:45;22.10;99.90
58513;DHT22;44302;47.914;10.642;2022-07-23T09:44:16;22.10;99.90
58513;DHT22;44302;47.914;10.642;2022-07-23T09:46:45;22.00;99.90
58513;DHT22;44302;47.914;10.642;2022-07-23T09:49:21;21.90;99.90
58513;DHT22;44302;47.914;10.642;2022-07-23T09:54:46;21.90;99.90
58513;DHT22;44302;47.914;10.642;2022-07-23T09:57:12;21.80;99.90
58513;DHT22;44302;47.914;10.642;2022-07-23T10:02:07;21.70;99.90
58513;DHT22;44302;47.914;10.642;2022-07-23T10:04:34;21.80;99.90
58513;DHT22;44302;47.914;10.642;2022-07-23T10:07:02;21.80;99.90
58513;DHT22;44302;47.914;10.642;2022-07-23T10:09:31;21.80;99.90
58513;DHT22;44302;47.914;10.642;2022-07-23T10:11:59;21.80;99.90
58513;DHT22;44302;47.914;10.642;2022-07-23T10:14:49;21.80;99.90
58513;DHT22;44302;47.914;10.642;2022-07-23T10:17:15;21.80;99.90
58513;DHT22;44302;47.914;10.642;2022-07-23T10:19:41;21.80;99.90
58513;DHT22;44302;47.914;10.642;2022-07-23T10:22:22;21.80;99.90
58513;DHT22;44302;47.914;10.642;2022-07-23T10:37:51;21.30;99.90
58513;DHT22;44302;47.914;10.642;2022-07-23T10:40:21;21.20;99.90
58513;DHT22;44302;47.914;10.642;2022-07-23T10:42:50;21.20;99.90
58513;DHT22;44302;47.914;10.642;2022-07-23T10:45:30;21.00;99.90
58513;DHT22;44302;47.914;10.642;2022-07-23T10:50:43;20.80;99.90
58513;DHT22;44302;47.914;10.642;2022-07-23T10:53:15;20.70;99.90
58513;DHT22;44302;47.914;10.642;2022-07-23T10:55:48;20.70;99.90
58513;DHT22;44302;47.914;10.642;2022-07-23T10:58:19;20.70;99.90
58513;DHT22;44302;47.914;10.642;2022-07-23T11:00:45;20.50;99.90
58513;DHT22;44302;47.914;10.642;2022-07-23T11:03:34;20.70;99.90
58513;DHT22;44302;47.914;10.642;2022-07-23T11:06:05;20.70;99.90
58513;DHT22;44302;47.914;10.642;2022-07-23T11:08:31;20.60;99.90
58513;DHT22;44302;47.914;10.642;2022-07-23T11:11:23;20.70;99.90
58513;DHT22;44302;47.914;10.642;2022-07-23T11:13:49;20.80;99.90
58513;DHT22;44302;47.914;10.642;2022-07-23T11:16:17;20.80;99.90
58513;DHT22;44302;47.914;10.642;2022-07-23T11:24:09;21.30;99.90
58513;DHT22;44302;47.914;10.642;2022-07-23T11:31:54;21.60;99.90
58513;DHT22;44302;47.914;10.642;2022-07-23T11:34:40;21.60;99.90
58513;DHT22;44302;47.914;10.642;2022-07-23T11:37:09;21.70;99.90
58513;DHT22;44302;47.914;10.642;2022-07-23T11:39:36;21.70;99.90
58513;DHT22;44302;47.914;10.642;2022-07-23T11:42:03;21.70;99.90
58513;DHT22;44302;47.914;10.642;2022-07-23T11:44:34;21.70;99.90
58513;DHT22;44302;47.914;10.642;2022-07-23T11:47:10;21.70;99.90
58513;DHT22;44302;47.914;10.642;2022-07-23T11:52:15;21.60;99.90
58513;DHT22;44302;47.914;10.642;2022-07-23T11:57:45;21.60;99.90
58513;DHT22;44302;47.914;10.642;2022-07-23T12:00:21;21.60;99.90
58513;DHT22;44302;47.914;10.642;2022-07-23T12:02:52;21.60;99.90
58513;DHT22;44302;47.914;10.642;2022-07-23T12:05:23;21.60;99.90
58513;DHT22;44302;47.914;10.642;2022-07-23T12:07:54;21.70;99.90
58513;DHT22;44302;47.914;10.642;2022-07-23T12:10:28;21.60;99.90
58513;DHT22;44302;47.914;10.642;2022-07-23T12:13:00;21.60;99.90
58513;DHT22;44302;47.914;10.642;2022-07-23T12:15:32;21.70;99.90
58513;DHT22;44302;47.914;10.642;2022-07-23T12:18:00;21.60;99.90
58513;DHT22;44302;47.914;10.642;2022-07-23T12:20:28;21.60;99.90
58513;DHT22;44302;47.914;10.642;2022-07-23T12:23:01;21.70;99.90
58513;DHT22;44302;47.914;10.642;2022-07-23T12:25:30;21.70;99.90
58513;DHT22;44302;47.914;10.642;2022-07-23T12:28:03;21.70;99.90
58513;DHT22;44302;47.914;10.642;2022-07-23T12:30:39;21.80;99.90
58513;DHT22;44302;47.914;10.642;2022-07-23T12:33:06;21.90;99.90
58513;DHT22;44302;47.914;10.642;2022-07-23T12:35:38;22.00;99.90
58513;DHT22;44302;47.914;10.642;2022-07-23T12:38:12;22.00;99.90
58513;DHT22;44302;47.914;10.642;2022-07-23T12:43:10;21.90;99.90
58513;DHT22;44302;47.914;10.642;2022-07-23T12:46:12;21.80;99.90
58513;DHT22;44302;47.914;10.642;2022-07-23T12:53:52;21.60;99.90
58513;DHT22;44302;47.914;10.642;2022-07-23T12:56:20;21.60;99.90
58513;DHT22;44302;47.914;10.642;2022-07-23T12:58:55;21.60;99.90
58513;DHT22;44302;47.914;10.642;2022-07-23T13:04:13;21.40;99.90
58513;DHT22;44302;47.914;10.642;2022-07-23T13:06:43;21.40;99.90
58513;DHT22;44302;47.914;10.642;2022-07-23T13:09:11;21.40;99.90
58513;DHT22;44302;47.914;10.642;2022-07-23T13:11:38;21.30;99.90
58513;DHT22;44302;47.914;10.642;2022-07-23T13:14:04;21.20;99.90
58513;DHT22;44302;47.914;10.642;2022-07-23T13:16:31;21.30;99.90
58513;DHT22;44302;47.914;10.642;2022-07-23T13:18:58;21.20;99.90
58513;DHT22;44302;47.914;10.642;2022-07-23T13:21:24;21.30;99.90
58513;DHT22;44302;47.914;10.642;2022-07-23T13:23:50;21.20;99.90
58513;DHT22;44302;47.914;10.642;2022-07-23T13:26:16;21.30;99.90
58513;DHT22;44302;47.914;10.642;2022-07-23T13:28:42;21.30;99.90
58513;DHT22;44302;47.914;10.642;2022-07-23T13:31:08;21.30;99.90
58513;DHT22;44302;47.914;10.642;2022-07-23T13:33:34;21.30;99.90
58513;DHT22;44302;47.914;10.642;2022-07-23T13:35:59;21.20;99.90
58513;DHT22;44302;47.914;10.642;2022-07-23T13:38:26;21.00;99.90
58513;DHT22;44302;47.914;10.642;2022-07-23T13:40:52;21.00;99.90
58513;DHT22;44302;47.914;10.642;2022-07-23T13:43:20;20.90;99.90
58513;DHT22;44302;47.914;10.642;2022-07-23T13:45:46;20.90;99.90
58513;DHT22;44302;47.914;10.642;2022-07-23T13:48:13;20.90;99.90
58513;DHT22;44302;47.914;10.642;2022-07-23T13:50:41;21.00;99.90
58513;DHT22;44302;47.914;10.642;2022-07-23T13:53:09;21.00;99.90
58513;DHT22;44302;47.914;10.642;2022-07-23T13:55:37;21.10;99.90
58513;DHT22;44302;47.914;10.642;2022-07-23T13:58:03;21.10;99.90
58513;DHT22;44302;47.914;10.642;2022-07-23T14:00:30;21.20;99.90
58513;DHT22;44302;47.914;10.642;2022-07-23T14:02:57;21.40;99.90
58513;DHT22;44302;47.914;10.642;2022-07-23T14:05:23;21.60;99.90
58513;DHT22;44302;47.914;10.642;2022-07-23T14:07:49;21.80;99.90
58513;DHT22;44302;47.914;10.642;2022-07-23T14:10:18;22.30;99.90
58513;DHT22;44302;47.914;10.642;2022-07-23T14:12:45;22.60;99.90
58513;DHT22;44302;47.914;10.642;2022-07-23T14:15:11;22.90;99.90
58513;DHT22;44302;47.914;10.642;2022-07-23T14:17:38;23.10;99.90
58513;DHT22;44302;47.914;10.642;2022-07-23T14:20:05;23.10;99.90
58513;DHT22;44302;47.914;10.642;2022-07-23T14:22:31;23.60;99.90
58513;DHT22;44302;47.914;10.642;2022-07-23T14:24:57;24.70;99.90
58513;DHT22;44302;47.914;10.642;2022-07-23T14:27:24;25.20;99.90
58513;DHT22;44302;47.914;10.642;2022-07-23T14:32:16;26.60;99.90
58513;DHT22;44302;47.914;10.642;2022-07-23T14:37:10;27.70;99.90
58513;DHT22;44302;47.914;10.642;2022-07-23T14:39:37;27.30;99.90
58513;DHT22;44302;47.914;10.642;2022-07-23T14:42:02;27.60;99.90
58513;DHT22;44302;47.914;10.642;2022-07-23T14:44:28;27.20;99.90
58513;DHT22;44302;47.914;10.642;2022-07-23T14:46:54;27.20;99.90
58513;DHT22;44302;47.914;10.642;2022-07-23T14:49:20;27.40;99.90
58513;DHT22;44302;47.914;10.642;2022-07-23T14:51:46;27.50;99.90
58513;DHT22;44302;47.914;10.642;2022-07-23T14:54:11;26.70;99.90
58513;DHT22;44302;47.914;10.642;2022-07-23T14:56:37;26.70;99.90
58513;DHT22;44302;47.914;10.642;2022-07-23T14:59:04;27.30;99.90
58513;DHT22;44302;47.914;10.642;2022-07-23T15:01:30;27.80;99.90
58513;DHT22;44302;47.914;10.642;2022-07-23T15:03:55;28.40;99.90
58513;DHT22;44302;47.914;10.642;2022-07-23T15:06:21;28.70;99.90
58513;DHT22;44302;47.914;10.642;2022-07-23T15:08:47;28.80;99.90
58513;DHT22;44302;47.914;10.642;2022-07-23T15:11:12;28.60;99.90
58513;DHT22;44302;47.914;10.642;2022-07-23T15:13:39;28.70;99.90
58513;DHT22;44302;47.914;10.642;2022-07-23T15:16:05;28.80;99.90
58513;DHT22;44302;47.914;10.642;2022-07-23T15:18:31;28.90;99.90
58513;DHT22;44302;47.914;10.642;2022-07-23T15:20:57;28.70;99.90
58513;DHT22;44302;47.914;10.642;2022-07-23T15:23:23;28.50;99.90
58513;DHT22;44302;47.914;10.642;2022-07-23T15:25:49;28.50;99.90
58513;DHT22;44302;47.914;10.642;2022-07-23T15:28:15;28.40;99.90
58513;DHT22;44302;47.914;10.642;2022-07-23T15:30:41;28.10;99.90
58513;DHT22;44302;47.914;10.642;2022-07-23T15:33:06;28.10;99.90
58513;DHT22;44302;47.914;10.642;2022-07-23T15:35:32;28.30;99.90
58513;DHT22;44302;47.914;10.642;2022-07-23T15:37:58;28.20;99.90
58513;DHT22;44302;47.914;10.642;2022-07-23T15:40:24;28.50;99.90
58513;DHT22;44302;47.914;10.642;2022-07-23T15:42:50;28.70;99.90
58513;DHT22;44302;47.914;10.642;2022-07-23T15:45:16;29.00;99.90
58513;DHT22;44302;47.914;10.642;2022-07-23T15:47:42;28.90;99.90
58513;DHT22;44302;47.914;10.642;2022-07-23T15:50:08;28.70;99.90
58513;DHT22;44302;47.914;10.642;2022-07-23T15:52:35;29.00;99.90
58513;DHT22;44302;47.914;10.642;2022-07-23T15:55:01;29.00;99.90
58513;DHT22;44302;47.914;10.642;2022-07-23T15:57:27;29.00;99.90
58513;DHT22;44302;47.914;10.642;2022-07-23T15:59:53;28.80;99.90
58513;DHT22;44302;47.914;10.642;2022-07-23T16:02:22;28.80;99.90
58513;DHT22;44302;47.914;10.642;2022-07-23T16:04:48;28.40;99.90
58513;DHT22;44302;47.914;10.642;2022-07-23T16:07:13;28.40;99.90
58513;DHT22;44302;47.914;10.642;2022-07-23T16:12:06;28.50;99.90
58513;DHT22;44302;47.914;10.642;2022-07-23T16:14:32;28.70;99.90
58513;DHT22;44302;47.914;10.642;2022-07-23T16:16:58;28.70;99.90
58513;DHT22;44302;47.914;10.642;2022-07-23T16:19:23;28.60;99.90
58513;DHT22;44302;47.914;10.642;2022-07-23T16:21:49;28.50;99.90
58513;DHT22;44302;47.914;10.642;2022-07-23T16:24:15;28.20;99.90
58513;DHT22;44302;47.914;10.642;2022-07-23T16:26:40;28.20;99.90
58513;DHT22;44302;47.914;10.642;2022-07-23T16:29:06;28.00;99.90
58513;DHT22;44302;47.914;10.642;2022-07-23T16:31:32;27.90;99.90
58513;DHT22;44302;47.914;10.642;2022-07-23T16:36:23;27.20;99.90
58513;DHT22;44302;47.914;10.642;2022-07-23T16:38:49;26.60;99.90
58513;DHT22;44302;47.914;10.642;2022-07-23T16:43:41;25.50;99.90
58513;DHT22;44302;47.914;10.642;2022-07-23T16:46:07;25.50;99.90
58513;DHT22;44302;47.914;10.642;2022-07-23T16:48:33;25.20;99.90
58513;DHT22;44302;47.914;10.642;2022-07-23T16:50:59;25.10;99.90
58513;DHT22;44302;47.914;10.642;2022-07-23T16:58:17;24.60;99.90
58513;DHT22;44302;47.914;10.642;2022-07-23T17:05:34;24.40;99.90
58513;DHT22;44302;47.914;10.642;2022-07-23T17:08:01;24.40;99.90
58513;DHT22;44302;47.914;10.642;2022-07-23T17:12:53;24.20;99.90
58513;DHT22;44302;47.914;10.642;2022-07-23T17:20:13;23.90;99.90
58513;DHT22;44302;47.914;10.642;2022-07-23T17:25:09;23.80;99.90
58513;DHT22;44302;47.914;10.642;2022-07-23T17:27:43;23.80;99.90
58513;DHT22;44302;47.914;10.642;2022-07-23T17:30:09;23.60;99.90
58513;DHT22;44302;47.914;10.642;2022-07-23T17:32:35;23.60;99.90
58513;DHT22;44302;47.914;10.642;2022-07-23T17:35:01;23.50;99.90
58513;DHT22;44302;47.914;10.642;2022-07-23T17:37:27;23.50;99.90
58513;DHT22;44302;47.914;10.642;2022-07-23T17:39:53;23.40;99.90
58513;DHT22;44302;47.914;10.642;2022-07-23T17:44:44;23.10;99.90
58513;DHT22;44302;47.914;10.642;2022-07-23T17:47:10;23.00;99.90
58513;DHT22;44302;47.914;10.642;2022-07-23T17:52:03;22.90;99.90
58513;DHT22;44302;47.914;10.642;2022-07-23T17:54:30;22.90;99.90
58513;DHT22;44302;47.914;10.642;2022-07-23T17:56:56;22.80;99.90
58513;DHT22;44302;47.914;10.642;2022-07-23T18:04:15;22.50;99.90
58513;DHT22;44302;47.914;10.642;2022-07-23T18:09:09;22.50;99.90
58513;DHT22;44302;47.914;10.642;2022-07-23T18:11:35;22.50;99.90
58513;DHT22;44302;47.914;10.642;2022-07-23T18:14:05;22.60;99.90
58513;DHT22;44302;47.914;10.642;2022-07-23T18:18:57;22.30;99.90
58513;DHT22;44302;47.914;10.642;2022-07-23T18:23:49;22.30;99.90
58513;DHT22;44302;47.914;10.642;2022-07-23T18:28:42;22.10;99.90
58513;DHT22;44302;47.914;10.642;2022-07-23T18:31:08;22.00;99.90
58513;DHT22;44302;47.914;10.642;2022-07-23T18:36:00;21.80;99.90
58513;DHT22;44302;47.914;10.642;2022-07-23T18:38:25;22.00;99.90
58513;DHT22;44302;47.914;10.642;2022-07-23T18:43:17;22.00;99.90
58513;DHT22;44302;47.914;10.642;2022-07-23T18:45:43;22.00;99.90
58513;DHT22;44302;47.914;10.642;2022-07-23T18:48:09;21.80;99.90
58513;DHT22;44302;47.914;10.642;2022-07-23T18:53:06;22.10;99.90
58513;DHT22;44302;47.914;10.642;2022-07-23T18:55:32;22.10;99.90
58513;DHT22;44302;47.914;10.642;2022-07-23T18:57:58;21.90;99.90
58513;DHT22;44302;47.914;10.642;2022-07-23T19:00:29;22.00;99.90
58513;DHT22;44302;47.914;10.642;2022-07-23T19:02:55;22.00;99.90
58513;DHT22;44302;47.914;10.642;2022-07-23T19:05:21;22.00;99.90
58513;DHT22;44302;47.914;10.642;2022-07-23T19:10:13;21.90;99.90
58513;DHT22;44302;47.914;10.642;2022-07-23T19:15:05;21.90;99.90
58513;DHT22;44302;47.914;10.642;2022-07-23T19:17:31;21.90;99.90
58513;DHT22;44302;47.914;10.642;2022-07-23T19:19:57;21.80;99.90
58513;DHT22;44302;47.914;10.642;2022-07-23T19:22:24;21.70;99.90
58513;DHT22;44302;47.914;10.642;2022-07-23T19:24:55;21.70;99.90
58513;DHT22;44302;47.914;10.642;2022-07-23T19:27:21;21.70;99.90
58513;DHT22;44302;47.914;10.642;2022-07-23T19:29:47;21.70;99.90
58513;DHT22;44302;47.914;10.642;2022-07-23T19:34:39;21.70;99.90
58513;DHT22;44302;47.914;10.642;2022-07-23T19:37:05;21.70;99.90
58513;DHT22;44302;47.914;10.642;2022-07-23T19:39:42;21.70;99.90
58513;DHT22;44302;47.914;10.642;2022-07-23T19:42:09;21.70;99.90
58513;DHT22;44302;47.914;10.642;2022-07-23T19:44:35;21.70;99.90
58513;DHT22;44302;47.914;10.642;2022-07-23T19:47:00;21.70;99.90
58513;DHT22;44302;47.914;10.642;2022-07-23T19:51:52;21.50;99.90
58513;DHT22;44302;47.914;10.642;2022-07-23T19:56:44;21.50;99.90
58513;DHT22;44302;47.914;10.642;2022-07-23T19:59:10;21.40;99.90
58513;DHT22;44302;47.914;10.642;2022-07-23T20:04:03;21.20;99.90
58513;DHT22;44302;47.914;10.642;2022-07-23T20:06:29;21.30;99.90
58513;DHT22;44302;47.914;10.642;2022-07-23T20:08:55;21.00;99.90
58513;DHT22;44302;47.914;10.642;2022-07-23T20:13:47;20.70;99.90
58513;DHT22;44302;47.914;10.642;2022-07-23T20:18:39;20.70;99.90
58513;DHT22;44302;47.914;10.642;2022-07-23T20:21:05;20.70;99.90
58513;DHT22;44302;47.914;10.642;2022-07-23T20:23:32;20.60;99.90
58513;DHT22;44302;47.914;10.642;2022-07-23T20:30:50;20.60;99.90
58513;DHT22;44302;47.914;10.642;2022-07-23T20:33:18;20.30;99.90
58513;DHT22;44302;47.914;10.642;2022-07-23T20:35:44;20.40;99.90
58513;DHT22;44302;47.914;10.642;2022-07-23T20:40:37;20.20;99.90
58513;DHT22;44302;47.914;10.642;2022-07-23T20:43:04;20.20;99.90
58513;DHT22;44302;47.914;10.642;2022-07-23T20:45:30;20.20;99.90
58513;DHT22;44302;47.914;10.642;2022-07-23T20:47:56;20.10;99.90
58513;DHT22;44302;47.914;10.642;2022-07-23T20:52:48;20.10;99.90
58513;DHT22;44302;47.914;10.642;2022-07-23T20:57:41;20.10;99.90
58513;DHT22;44302;47.914;10.642;2022-07-23T21:00:09;19.50;99.90
58513;DHT22;44302;47.914;10.642;2022-07-23T21:05:03;20.20;99.90
58513;DHT22;44302;47.914;10.642;2022-07-23T21:07:29;20.00;99.90
58513;DHT22;44302;47.914;10.642;2022-07-23T21:09:55;20.10;99.90
58513;DHT22;44302;47.914;10.642;2022-07-23T21:14:48;20.10;99.90
58513;DHT22;44302;47.914;10.642;2022-07-23T21:19:40;19.90;99.90
58513;DHT22;44302;47.914;10.642;2022-07-23T21:22:06;20.10;99.90
58513;DHT22;44302;47.914;10.642;2022-07-23T21:24:33;20.00;99.90
58513;DHT22;44302;47.914;10.642;2022-07-23T21:27:00;19.90;99.90
58513;DHT22;44302;47.914;10.642;2022-07-23T21:29:26;19.90;99.90
58513;DHT22;44302;47.914;10.642;2022-07-23T21:34:21;19.80;99.90
58513;DHT22;44302;47.914;10.642;2022-07-23T21:36:47;19.80;99.90
58513;DHT22;44302;47.914;10.642;2022-07-23T21:39:13;19.80;99.90
58513;DHT22;44302;47.914;10.642;2022-07-23T21:41:40;19.80;99.90
58513;DHT22;44302;47.914;10.642;2022-07-23T21:44:06;19.80;99.90
58513;DHT22;44302;47.914;10.642;2022-07-23T21:46:32;19.80;99.90
58513;DHT22;44302;47.914;10.642;2022-07-23T21:49:00;19.80;99.90
58513;DHT22;44302;47.914;10.642;2022-07-23T21:51:28;19.80;99.90
58513;DHT22;44302;47.914;10.642;2022-07-23T21:53:54;19.80;99.90
58513;DHT22;44302;47.914;10.642;2022-07-23T21:56:20;19.80;99.90
58513;DHT22;44302;47.914;10.642;2022-07-23T22:01:12;19.80;99.90
58513;DHT22;44302;47.914;10.642;2022-07-23T22:03:38;19.70;99.90
58513;DHT22;44302;47.914;10.642;2022-07-23T22:06:04;19.70;99.90
58513;DHT22;44302;47.914;10.642;2022-07-23T22:08:30;19.70;99.90
58513;DHT22;44302;47.914;10.642;2022-07-23T22:10:56;19.60;99.90
58513;DHT22;44302;47.914;10.642;2022-07-23T22:13:21;19.60;99.90
58513;DHT22;44302;47.914;10.642;2022-07-23T22:15:47;19.60;99.90
58513;DHT22;44302;47.914;10.642;2022-07-23T22:20:39;19.60;99.90
58513;DHT22;44302;47.914;10.642;2022-07-23T22:23:05;19.50;99.90
58513;DHT22;44302;47.914;10.642;2022-07-23T22:25:31;19.50;99.90
58513;DHT22;44302;47.914;10.642;2022-07-23T22:27:58;19.50;99.90
58513;DHT22;44302;47.914;10.642;2022-07-23T22:30:24;19.50;99.90
58513;DHT22;44302;47.914;10.642;2022-07-23T22:32:50;19.50;99.90
58513;DHT22;44302;47.914;10.642;2022-07-23T22:35:17;19.50;99.90
58513;DHT22;44302;47.914;10.642;2022-07-23T22:37:44;19.50;99.90
58513;DHT22;44302;47.914;10.642;2022-07-23T22:40:10;19.50;99.90
58513;DHT22;44302;47.914;10.642;2022-07-23T22:42:36;19.50;99.90
58513;DHT22;44302;47.914;10.642;2022-07-23T22:45:02;19.50;99.90
58513;DHT22;44302;47.914;10.642;2022-07-23T22:47:28;19.50;99.90
58513;DHT22;44302;47.914;10.642;2022-07-23T22:49:54;19.50;99.90
58513;DHT22;44302;47.914;10.642;2022-07-23T22:52:20;19.50;99.90
58513;DHT22;44302;47.914;10.642;2022-07-23T22:54:45;19.50;99.90
58513;DHT22;44302;47.914;10.642;2022-07-23T22:57:11;19.50;99.90
58513;DHT22;44302;47.914;10.642;2022-07-23T22:59:37;19.50;99.90
58513;DHT22;44302;47.914;10.642;2022-07-23T23:02:03;19.60;99.90
58513;DHT22;44302;47.914;10.642;2022-07-23T23:06:55;19.50;99.90
58513;DHT22;44302;47.914;10.642;2022-07-23T23:09:20;19.50;99.90
58513;DHT22;44302;47.914;10.642;2022-07-23T23:11:46;19.50;99.90